sensor_id;sensor_type;location;lat;lon;timestamp;pressure;altitude;pressure_sealevel;temperature;humidity
33153;BME280;19509;43.862;26.176;2023-03-20T00:00:50;101206.97;;;1.51;83.04
33153;BME280;19509;43.862;26.176;2023-03-20T00:03:16;101203.47;;;1.40;83.45
33153;BME280;19509;43.862;26.176;2023-03-20T00:05:42;101204.84;;;1.35;83.78
33153;BME280;19509;43.862;26.176;2023-03-20T00:08:08;68161.28;;;1.30;83.42
33153;BME280;19509;43.862;26.176;2023-03-20T00:10:44;101209.31;;;1.34;83.57
33153;BME280;19509;43.862;26.176;2023-03-20T00:13:20;101204.00;;;1.26;100.00
33153;BME280;19509;43.862;26.176;2023-03-20T00:15:48;101206.50;;;1.26;83.56
33153;BME280;19509;43.862;26.176;2023-03-20T00:18:19;101202.84;;;1.17;83.59
33153;BME280;19509;43.862;26.176;2023-03-20T00:20:48;101183.19;;;1.20;83.27
33153;BME280;19509;43.862;26.176;2023-03-20T00:23:15;101192.78;;;1.21;83.22
33153;BME280;19509;43.862;26.176;2023-03-20T00:25:42;101189.47;;;1.19;83.07
33153;BME280;19509;43.862;26.176;2023-03-20T00:31:04;101183.56;;;1.06;82.99
33153;BME280;19509;43.862;26.176;2023-03-20T00:33:30;101174.50;;;1.18;82.83
33153;BME280;19509;43.862;26.176;2023-03-20T00:35:55;101177.69;;;1.12;83.01
33153;BME280;19509;43.862;26.176;2023-03-20T00:38:23;101169.00;;;1.00;83.46
33153;BME280;19509;43.862;26.176;2023-03-20T00:40:49;101165.84;;;1.06;83.52
33153;BME280;19509;43.862;26.176;2023-03-20T00:43:15;101151.63;;;1.17;83.15
33153;BME280;19509;43.862;26.176;2023-03-20T00:45:44;101152.03;;;1.12;82.82
33153;BME280;19509;43.862;26.176;2023-03-20T00:48:12;101160.53;;;1.06;83.13
33153;BME280;19509;43.862;26.176;2023-03-20T00:50:39;101155.03;;;0.98;83.38
33153;BME280;19509;43.862;26.176;2023-03-20T00:53:05;101149.59;;;0.90;83.78
33153;BME280;19509;43.862;26.176;2023-03-20T00:55:30;101149.13;;;0.85;84.50
33153;BME280;19509;43.862;26.176;2023-03-20T00:57:58;101151.94;;;0.83;84.66
33153;BME280;19509;43.862;26.176;2023-03-20T01:02:57;101140.38;;;0.94;84.49
33153;BME280;19509;43.862;26.176;2023-03-20T01:05:24;101142.91;;;0.96;84.08
33153;BME280;19509;43.862;26.176;2023-03-20T01:07:50;101135.75;;;0.86;83.88
33153;BME280;19509;43.862;26.176;2023-03-20T01:10:16;101143.66;;;0.77;84.22
33153;BME280;19509;43.862;26.176;2023-03-20T01:12:43;101145.91;;;0.72;83.78
33153;BME280;19509;43.862;26.176;2023-03-20T01:15:22;101138.22;;;0.68;84.35
33153;BME280;19509;43.862;26.176;2023-03-20T01:17:48;101143.38;;;0.70;84.74
33153;BME280;19509;43.862;26.176;2023-03-20T01:20:22;101139.03;;;0.69;84.83
33153;BME280;19509;43.862;26.176;2023-03-20T01:22:48;101143.66;;;0.77;84.97
33153;BME280;19509;43.862;26.176;2023-03-20T01:25:14;101145.03;;;0.71;85.27
33153;BME280;19509;43.862;26.176;2023-03-20T01:27:42;101132.19;;;0.66;85.70
33153;BME280;19509;43.862;26.176;2023-03-20T01:30:30;101135.97;;;0.74;85.74
33153;BME280;19509;43.862;26.176;2023-03-20T01:32:56;101133.22;;;0.75;85.38
33153;BME280;19509;43.862;26.176;2023-03-20T01:35:26;101134.34;;;0.82;85.25
33153;BME280;19509;43.862;26.176;2023-03-20T01:37:52;101137.69;;;0.84;84.37
33153;BME280;19509;43.862;26.176;2023-03-20T01:40:26;101135.31;;;0.81;84.38
33153;BME280;19509;43.862;26.176;2023-03-20T01:42:55;101138.38;;;0.77;84.82
33153;BME280;19509;43.862;26.176;2023-03-20T01:45:25;101135.00;;;0.75;84.88
33153;BME280;19509;43.862;26.176;2023-03-20T01:47:53;101122.16;;;0.70;85.10
33153;BME280;19509;43.862;26.176;2023-03-20T01:50:23;101131.53;;;0.74;85.19
33153;BME280;19509;43.862;26.176;2023-03-20T01:52:55;101121.19;;;0.71;85.03
33153;BME280;19509;43.862;26.176;2023-03-20T01:55:23;101121.59;;;0.66;85.13
33153;BME280;19509;43.862;26.176;2023-03-20T01:57:51;101122.63;;;0.75;85.78
33153;BME280;19509;43.862;26.176;2023-03-20T02:00:18;101124.56;;;0.73;85.27
33153;BME280;19509;43.862;26.176;2023-03-20T02:02:46;101131.94;;;0.69;85.54
33153;BME280;19509;43.862;26.176;2023-03-20T02:05:13;101128.81;;;0.64;85.30
33153;BME280;19509;43.862;26.176;2023-03-20T02:07:41;101129.13;;;0.40;83.64
33153;BME280;19509;43.862;26.176;2023-03-20T02:10:12;101131.53;;;0.22;84.26
33153;BME280;19509;43.862;26.176;2023-03-20T02:12:39;101125.41;;;0.22;85.14
33153;BME280;19509;43.862;26.176;2023-03-20T02:15:06;101126.66;;;0.18;86.49
33153;BME280;19509;43.862;26.176;2023-03-20T02:17:32;101131.47;;;0.34;86.84
33153;BME280;19509;43.862;26.176;2023-03-20T02:39:52;101121.03;;;0.63;87.03
33153;BME280;19509;43.862;26.176;2023-03-20T02:48:18;101120.88;;;0.64;86.83
33153;BME280;19509;43.862;26.176;2023-03-20T03:03:04;101113.34;;;0.60;88.30
33153;BME280;19509;43.862;26.176;2023-03-20T03:05:22;101103.88;;;0.67;87.50
33153;BME280;19509;43.862;26.176;2023-03-20T03:07:51;101102.38;;;0.74;86.63
33153;BME280;19509;43.862;26.176;2023-03-20T03:10:26;101106.16;;;0.72;86.51
33153;BME280;19509;43.862;26.176;2023-03-20T03:12:55;101106.69;;;0.65;86.88
33153;BME280;19509;43.862;26.176;2023-03-20T03:17:48;101096.41;;;0.72;86.64
33153;BME280;19509;43.862;26.176;2023-03-20T03:20:37;101098.91;;;0.74;87.22
33153;BME280;19509;43.862;26.176;2023-03-20T03:23:04;101103.59;;;0.60;87.64
33153;BME280;19509;43.862;26.176;2023-03-20T03:25:39;101095.09;;;0.66;87.71
33153;BME280;19509;43.862;26.176;2023-03-20T03:30:56;101099.94;;;0.52;87.29
33153;BME280;19509;43.862;26.176;2023-03-20T03:33:28;101097.41;;;0.50;87.75
33153;BME280;19509;43.862;26.176;2023-03-20T03:36:12;101095.44;;;0.42;88.12
33153;BME280;19509;43.862;26.176;2023-03-20T03:41:34;101098.66;;;0.46;87.61
33153;BME280;19509;43.862;26.176;2023-03-20T03:46:55;101094.13;;;0.37;88.38
33153;BME280;19509;43.862;26.176;2023-03-20T03:49:26;101088.50;;;0.51;88.99
33153;BME280;19509;43.862;26.176;2023-03-20T03:52:01;101090.19;;;0.52;88.40
33153;BME280;19509;43.862;26.176;2023-03-20T03:54:34;101096.47;;;0.51;88.18
33153;BME280;19509;43.862;26.176;2023-03-20T03:57:02;101063.88;;;0.30;88.13
33153;BME280;19509;43.862;26.176;2023-03-20T03:59:38;101092.41;;;0.57;87.92
33153;BME280;19509;43.862;26.176;2023-03-20T04:02:06;101109.56;;;0.53;87.85
33153;BME280;19509;43.862;26.176;2023-03-20T04:04:36;101107.56;;;0.45;88.27
33153;BME280;19509;43.862;26.176;2023-03-20T04:07:03;101102.84;;;0.49;88.68
33153;BME280;19509;43.862;26.176;2023-03-20T04:09:28;101107.53;;;0.66;88.10
33153;BME280;19509;43.862;26.176;2023-03-20T04:11:54;101101.50;;;0.64;87.99
33153;BME280;19509;43.862;26.176;2023-03-20T04:14:20;101111.72;;;0.68;88.03
33153;BME280;19509;43.862;26.176;2023-03-20T04:16:46;101117.91;;;0.79;87.62
33153;BME280;19509;43.862;26.176;2023-03-20T04:19:12;101111.31;;;0.73;87.92
33153;BME280;19509;43.862;26.176;2023-03-20T04:21:37;101111.75;;;0.78;88.16
33153;BME280;19509;43.862;26.176;2023-03-20T04:24:03;101111.75;;;0.78;88.38
33153;BME280;19509;43.862;26.176;2023-03-20T04:26:29;101116.91;;;0.80;88.73
33153;BME280;19509;43.862;26.176;2023-03-20T04:28:54;101117.31;;;0.75;88.41
33153;BME280;19509;43.862;26.176;2023-03-20T04:31:20;101111.34;;;0.83;88.68
33153;BME280;19509;43.862;26.176;2023-03-20T04:33:46;101106.91;;;0.93;87.61
33153;BME280;19509;43.862;26.176;2023-03-20T04:36:12;101116.31;;;1.07;86.91
33153;BME280;19509;43.862;26.176;2023-03-20T04:38:37;101112.41;;;1.11;86.72
33153;BME280;19509;43.862;26.176;2023-03-20T04:41:04;101112.97;;;1.24;86.08
33153;BME280;19509;43.862;26.176;2023-03-20T04:43:30;101114.66;;;1.25;85.32
33153;BME280;19509;43.862;26.176;2023-03-20T04:45:55;101121.94;;;1.33;85.37
33153;BME280;19509;43.862;26.176;2023-03-20T04:48:21;101117.91;;;1.48;85.27
33153;BME280;19509;43.862;26.176;2023-03-20T04:50:46;101118.31;;;1.73;85.11
33153;BME280;19509;43.862;26.176;2023-03-20T04:53:16;101112.19;;;2.01;83.93
33153;BME280;19509;43.862;26.176;2023-03-20T04:55:43;101106.97;;;2.19;83.22
33153;BME280;19509;43.862;26.176;2023-03-20T04:58:10;101109.88;;;2.35;81.65
33153;BME280;19509;43.862;26.176;2023-03-20T05:00:36;101111.00;;;2.70;79.52
33153;BME280;19509;43.862;26.176;2023-03-20T05:03:02;101112.59;;;2.91;78.18
33153;BME280;19509;43.862;26.176;2023-03-20T05:05:27;101113.16;;;2.84;78.28
33153;BME280;19509;43.862;26.176;2023-03-20T05:07:54;101121.06;;;3.04;78.01
33153;BME280;19509;43.862;26.176;2023-03-20T05:10:20;101136.91;;;3.23;77.46
33153;BME280;19509;43.862;26.176;2023-03-20T05:12:46;101132.66;;;3.30;77.85
33153;BME280;19509;43.862;26.176;2023-03-20T05:15:12;101127.00;;;3.61;77.26
33153;BME280;19509;43.862;26.176;2023-03-20T05:17:37;101124.81;;;4.00;75.82
33153;BME280;19509;43.862;26.176;2023-03-20T05:20:03;101123.63;;;4.39;75.14
33153;BME280;19509;43.862;26.176;2023-03-20T05:22:29;101128.25;;;4.97;72.89
33153;BME280;19509;43.862;26.176;2023-03-20T05:24:54;101127.69;;;5.28;71.63
33153;BME280;19509;43.862;26.176;2023-03-20T05:27:20;101131.19;;;5.95;69.48
33153;BME280;19509;43.862;26.176;2023-03-20T05:29:45;101138.69;;;6.88;66.60
33153;BME280;19509;43.862;26.176;2023-03-20T05:32:11;101141.00;;;6.99;65.52
33153;BME280;19509;43.862;26.176;2023-03-20T05:34:37;101146.59;;;7.21;65.21
33153;BME280;19509;43.862;26.176;2023-03-20T05:37:02;101152.91;;;8.28;61.44
33153;BME280;19509;43.862;26.176;2023-03-20T05:39:28;101143.88;;;9.33;57.60
33153;BME280;19509;43.862;26.176;2023-03-20T05:41:53;63304.72;;;-144.22;100.00
33153;BME280;19509;43.862;26.176;2023-03-20T05:44:19;63304.72;;;-144.22;100.00
33153;BME280;19509;43.862;26.176;2023-03-20T05:46:45;63304.72;;;-144.22;100.00
33153;BME280;19509;43.862;26.176;2023-03-20T05:49:10;63304.72;;;-144.22;100.00
33153;BME280;19509;43.862;26.176;2023-03-20T05:51:36;63304.72;;;-144.22;100.00
33153;BME280;19509;43.862;26.176;2023-03-20T05:54:02;63304.72;;;-144.22;100.00
33153;BME280;19509;43.862;26.176;2023-03-20T05:56:27;63304.72;;;-144.22;100.00
33153;BME280;19509;43.862;26.176;2023-03-20T05:58:53;63304.72;;;-144.22;100.00
33153;BME280;19509;43.862;26.176;2023-03-20T06:01:18;63304.72;;;-144.22;100.00
33153;BME280;19509;43.862;26.176;2023-03-20T06:03:48;63304.72;;;-144.22;100.00
33153;BME280;19509;43.862;26.176;2023-03-20T06:06:15;63304.72;;;-144.22;100.00
33153;BME280;19509;43.862;26.176;2023-03-20T06:08:40;63304.72;;;-144.22;100.00
33153;BME280;19509;43.862;26.176;2023-03-20T06:11:06;63304.72;;;-144.22;100.00
33153;BME280;19509;43.862;26.176;2023-03-20T06:13:31;63304.72;;;-144.22;100.00
33153;BME280;19509;43.862;26.176;2023-03-20T06:15:57;63304.72;;;-144.22;100.00
33153;BME280;19509;43.862;26.176;2023-03-20T06:18:22;63304.72;;;-144.22;100.00
33153;BME280;19509;43.862;26.176;2023-03-20T06:20:52;63304.72;;;-144.22;100.00
33153;BME280;19509;43.862;26.176;2023-03-20T06:23:17;63304.72;;;-144.22;100.00
33153;BME280;19509;43.862;26.176;2023-03-20T06:25:43;63304.72;;;-144.22;100.00
33153;BME280;19509;43.862;26.176;2023-03-20T06:28:08;63304.72;;;-144.22;100.00
33153;BME280;19509;43.862;26.176;2023-03-20T06:30:34;63304.72;;;-144.22;100.00
33153;BME280;19509;43.862;26.176;2023-03-20T06:32:59;63304.72;;;-144.22;100.00
33153;BME280;19509;43.862;26.176;2023-03-20T06:35:25;63304.72;;;-144.22;100.00
33153;BME280;19509;43.862;26.176;2023-03-20T06:37:55;63304.72;;;-144.22;100.00
33153;BME280;19509;43.862;26.176;2023-03-20T06:40:21;63304.72;;;-144.22;100.00
33153;BME280;19509;43.862;26.176;2023-03-20T06:42:46;63304.72;;;-144.22;100.00
33153;BME280;19509;43.862;26.176;2023-03-20T06:45:12;63304.72;;;-144.22;100.00
33153;BME280;19509;43.862;26.176;2023-03-20T06:47:37;63304.72;;;-144.22;100.00
33153;BME280;19509;43.862;26.176;2023-03-20T06:50:03;63304.72;;;-144.22;100.00
33153;BME280;19509;43.862;26.176;2023-03-20T06:52:29;63304.72;;;-144.22;100.00
33153;BME280;19509;43.862;26.176;2023-03-20T06:54:54;63304.72;;;-144.22;100.00
33153;BME280;19509;43.862;26.176;2023-03-20T06:57:21;63304.72;;;-144.22;100.00
33153;BME280;19509;43.862;26.176;2023-03-20T06:59:46;63304.72;;;-144.22;100.00
33153;BME280;19509;43.862;26.176;2023-03-20T07:02:12;63304.72;;;-144.22;100.00
33153;BME280;19509;43.862;26.176;2023-03-20T07:04:37;63304.72;;;-144.22;100.00
33153;BME280;19509;43.862;26.176;2023-03-20T07:07:03;63304.72;;;-144.22;100.00
33153;BME280;19509;43.862;26.176;2023-03-20T07:09:28;63304.72;;;-144.22;100.00
33153;BME280;19509;43.862;26.176;2023-03-20T07:11:54;63304.72;;;-144.22;100.00
33153;BME280;19509;43.862;26.176;2023-03-20T07:14:20;63304.72;;;-144.22;100.00
33153;BME280;19509;43.862;26.176;2023-03-20T07:16:47;63304.72;;;-144.22;100.00
33153;BME280;19509;43.862;26.176;2023-03-20T07:19:12;63304.72;;;-144.22;100.00
33153;BME280;19509;43.862;26.176;2023-03-20T07:21:38;63304.72;;;-144.22;100.00
33153;BME280;19509;43.862;26.176;2023-03-20T07:24:04;63304.72;;;-144.22;100.00
33153;BME280;19509;43.862;26.176;2023-03-20T07:26:31;63304.72;;;-144.22;100.00
33153;BME280;19509;43.862;26.176;2023-03-20T07:28:56;63304.72;;;-144.22;100.00
33153;BME280;19509;43.862;26.176;2023-03-20T07:31:24;63304.72;;;-144.22;100.00
33153;BME280;19509;43.862;26.176;2023-03-20T07:33:50;63304.72;;;-144.22;100.00
33153;BME280;19509;43.862;26.176;2023-03-20T07:36:16;63304.72;;;-144.22;100.00
33153;BME280;19509;43.862;26.176;2023-03-20T07:38:41;63304.72;;;-144.22;100.00
33153;BME280;19509;43.862;26.176;2023-03-20T07:41:07;63304.72;;;-144.22;100.00
33153;BME280;19509;43.862;26.176;2023-03-20T07:43:32;63304.72;;;-144.22;100.00
33153;BME280;19509;43.862;26.176;2023-03-20T07:46:01;63304.72;;;-144.22;100.00
33153;BME280;19509;43.862;26.176;2023-03-20T07:48:27;63304.72;;;-144.22;100.00
33153;BME280;19509;43.862;26.176;2023-03-20T07:50:53;63304.72;;;-144.22;100.00
33153;BME280;19509;43.862;26.176;2023-03-20T07:53:18;63304.72;;;-144.22;100.00
33153;BME280;19509;43.862;26.176;2023-03-20T07:55:44;63304.72;;;-144.22;100.00
33153;BME280;19509;43.862;26.176;2023-03-20T07:58:09;63304.72;;;-144.22;100.00
33153;BME280;19509;43.862;26.176;2023-03-20T08:00:35;63304.72;;;-144.22;100.00
33153;BME280;19509;43.862;26.176;2023-03-20T08:03:00;63304.72;;;-144.22;100.00
33153;BME280;19509;43.862;26.176;2023-03-20T08:05:26;63304.72;;;-144.22;100.00
33153;BME280;19509;43.862;26.176;2023-03-20T08:07:51;63304.72;;;-144.22;100.00
33153;BME280;19509;43.862;26.176;2023-03-20T08:10:17;63304.72;;;-144.22;100.00
33153;BME280;19509;43.862;26.176;2023-03-20T08:12:42;63304.72;;;-144.22;100.00
33153;BME280;19509;43.862;26.176;2023-03-20T08:15:08;63304.72;;;-144.22;100.00
33153;BME280;19509;43.862;26.176;2023-03-20T08:17:34;63304.72;;;-144.22;100.00
33153;BME280;19509;43.862;26.176;2023-03-20T08:19:59;63304.72;;;-144.22;100.00
33153;BME280;19509;43.862;26.176;2023-03-20T08:22:25;63304.72;;;-144.22;100.00
33153;BME280;19509;43.862;26.176;2023-03-20T08:24:50;63304.72;;;-144.22;100.00
33153;BME280;19509;43.862;26.176;2023-03-20T08:27:16;63304.72;;;-144.22;100.00
33153;BME280;19509;43.862;26.176;2023-03-20T08:29:41;63304.72;;;-144.22;100.00
33153;BME280;19509;43.862;26.176;2023-03-20T08:32:07;63304.72;;;-144.22;100.00
33153;BME280;19509;43.862;26.176;2023-03-20T08:34:32;63304.72;;;-144.22;100.00
33153;BME280;19509;43.862;26.176;2023-03-20T08:36:58;63304.72;;;-144.22;100.00
33153;BME280;19509;43.862;26.176;2023-03-20T08:39:23;63304.72;;;-144.22;100.00
33153;BME280;19509;43.862;26.176;2023-03-20T08:41:49;63304.72;;;-144.22;100.00
33153;BME280;19509;43.862;26.176;2023-03-20T08:44:14;63304.72;;;-144.22;100.00
33153;BME280;19509;43.862;26.176;2023-03-20T08:46:40;63304.72;;;-144.22;100.00
33153;BME280;19509;43.862;26.176;2023-03-20T08:49:07;63304.72;;;-144.22;100.00
33153;BME280;19509;43.862;26.176;2023-03-20T08:51:33;63304.72;;;-144.22;100.00
33153;BME280;19509;43.862;26.176;2023-03-20T08:53:58;63304.72;;;-144.22;100.00
33153;BME280;19509;43.862;26.176;2023-03-20T08:56:24;63304.72;;;-144.22;100.00
33153;BME280;19509;43.862;26.176;2023-03-20T08:58:49;63304.72;;;-144.22;100.00
33153;BME280;19509;43.862;26.176;2023-03-20T09:01:17;63304.72;;;-144.22;100.00
33153;BME280;19509;43.862;26.176;2023-03-20T09:03:43;63304.72;;;-144.22;100.00
33153;BME280;19509;43.862;26.176;2023-03-20T09:06:09;63304.72;;;-144.22;100.00
33153;BME280;19509;43.862;26.176;2023-03-20T09:08:36;63304.72;;;-144.22;100.00
33153;BME280;19509;43.862;26.176;2023-03-20T09:11:02;63304.72;;;-144.22;100.00
33153;BME280;19509;43.862;26.176;2023-03-20T09:13:28;63304.72;;;-144.22;100.00
33153;BME280;19509;43.862;26.176;2023-03-20T09:15:54;63304.72;;;-144.22;100.00
33153;BME280;19509;43.862;26.176;2023-03-20T09:18:20;63304.72;;;-144.22;100.00
33153;BME280;19509;43.862;26.176;2023-03-20T09:20:47;63304.72;;;-144.22;100.00
33153;BME280;19509;43.862;26.176;2023-03-20T09:23:13;63304.72;;;-144.22;100.00
33153;BME280;19509;43.862;26.176;2023-03-20T09:25:38;63304.72;;;-144.22;100.00
33153;BME280;19509;43.862;26.176;2023-03-20T09:28:04;63304.72;;;-144.22;100.00
33153;BME280;19509;43.862;26.176;2023-03-20T09:30:29;63304.72;;;-144.22;100.00
33153;BME280;19509;43.862;26.176;2023-03-20T09:32:55;63304.72;;;-144.22;100.00
33153;BME280;19509;43.862;26.176;2023-03-20T09:35:20;63304.72;;;-144.22;100.00
33153;BME280;19509;43.862;26.176;2023-03-20T09:37:46;63304.72;;;-144.22;100.00
33153;BME280;19509;43.862;26.176;2023-03-20T09:40:30;63304.72;;;-144.22;100.00
33153;BME280;19509;43.862;26.176;2023-03-20T09:46:23;63304.72;;;-144.22;100.00
33153;BME280;19509;43.862;26.176;2023-03-20T09:48:58;63304.72;;;-144.22;100.00
33153;BME280;19509;43.862;26.176;2023-03-20T09:51:50;63304.72;;;-144.22;100.00
33153;BME280;19509;43.862;26.176;2023-03-20T09:54:33;63304.72;;;-144.22;100.00
33153;BME280;19509;43.862;26.176;2023-03-20T09:57:01;63304.72;;;-144.22;100.00
33153;BME280;19509;43.862;26.176;2023-03-20T09:59:28;63304.72;;;-144.22;100.00
33153;BME280;19509;43.862;26.176;2023-03-20T10:02:10;63304.72;;;-144.22;100.00
33153;BME280;19509;43.862;26.176;2023-03-20T10:04:41;63304.72;;;-144.22;100.00
33153;BME280;19509;43.862;26.176;2023-03-20T10:07:09;63304.72;;;-144.22;100.00
33153;BME280;19509;43.862;26.176;2023-03-20T10:09:37;63304.72;;;-144.22;100.00
33153;BME280;19509;43.862;26.176;2023-03-20T10:16:04;63304.72;;;-144.22;100.00
33153;BME280;19509;43.862;26.176;2023-03-20T10:20:42;63304.72;;;-144.22;100.00
33153;BME280;19509;43.862;26.176;2023-03-20T10:23:20;63304.72;;;-144.22;100.00
33153;BME280;19509;43.862;26.176;2023-03-20T10:25:51;63304.72;;;-144.22;100.00
33153;BME280;19509;43.862;26.176;2023-03-20T10:28:29;63304.72;;;-144.22;100.00
33153;BME280;19509;43.862;26.176;2023-03-20T10:31:21;63304.72;;;-144.22;100.00
33153;BME280;19509;43.862;26.176;2023-03-20T10:34:05;63304.72;;;-144.22;100.00
33153;BME280;19509;43.862;26.176;2023-03-20T10:39:42;63304.72;;;-144.22;100.00
33153;BME280;19509;43.862;26.176;2023-03-20T10:42:20;63304.72;;;-144.22;100.00
33153;BME280;19509;43.862;26.176;2023-03-20T10:45:01;63304.72;;;-144.22;100.00
33153;BME280;19509;43.862;26.176;2023-03-20T10:47:33;63304.72;;;-144.22;100.00
33153;BME280;19509;43.862;26.176;2023-03-20T10:50:03;63304.72;;;-144.22;100.00
33153;BME280;19509;43.862;26.176;2023-03-20T10:52:34;63304.72;;;-144.22;100.00
33153;BME280;19509;43.862;26.176;2023-03-20T10:55:09;63304.72;;;-144.22;100.00
33153;BME280;19509;43.862;26.176;2023-03-20T10:57:39;63304.72;;;-144.22;100.00
33153;BME280;19509;43.862;26.176;2023-03-20T11:00:12;63304.72;;;-144.22;100.00
33153;BME280;19509;43.862;26.176;2023-03-20T11:02:43;63304.72;;;-144.22;100.00
33153;BME280;19509;43.862;26.176;2023-03-20T11:05:30;63304.72;;;-144.22;100.00
33153;BME280;19509;43.862;26.176;2023-03-20T11:08:08;63304.72;;;-144.22;100.00
33153;BME280;19509;43.862;26.176;2023-03-20T11:10:38;63304.72;;;-144.22;100.00
33153;BME280;19509;43.862;26.176;2023-03-20T11:13:18;63304.72;;;-144.22;100.00
33153;BME280;19509;43.862;26.176;2023-03-20T11:15:47;63304.72;;;-144.22;100.00
33153;BME280;19509;43.862;26.176;2023-03-20T11:18:14;63304.72;;;-144.22;100.00
33153;BME280;19509;43.862;26.176;2023-03-20T11:20:50;63304.72;;;-144.22;100.00
33153;BME280;19509;43.862;26.176;2023-03-20T11:23:25;63304.72;;;-144.22;100.00
33153;BME280;19509;43.862;26.176;2023-03-20T11:25:57;63304.72;;;-144.22;100.00
33153;BME280;19509;43.862;26.176;2023-03-20T11:28:56;63304.72;;;-144.22;100.00
33153;BME280;19509;43.862;26.176;2023-03-20T11:31:36;63304.72;;;-144.22;100.00
33153;BME280;19509;43.862;26.176;2023-03-20T11:36:35;63304.72;;;-144.22;100.00
33153;BME280;19509;43.862;26.176;2023-03-20T11:39:14;63304.72;;;-144.22;100.00
33153;BME280;19509;43.862;26.176;2023-03-20T11:41:46;63304.72;;;-144.22;100.00
33153;BME280;19509;43.862;26.176;2023-03-20T11:47:11;63304.72;;;-144.22;100.00
33153;BME280;19509;43.862;26.176;2023-03-20T11:49:53;63304.72;;;-144.22;100.00
33153;BME280;19509;43.862;26.176;2023-03-20T11:52:31;63304.72;;;-144.22;100.00
33153;BME280;19509;43.862;26.176;2023-03-20T11:55:00;63304.72;;;-144.22;100.00
33153;BME280;19509;43.862;26.176;2023-03-20T11:57:34;63304.72;;;-144.22;100.00
33153;BME280;19509;43.862;26.176;2023-03-20T12:00:05;63304.72;;;-144.22;100.00
33153;BME280;19509;43.862;26.176;2023-03-20T12:02:32;63304.72;;;-144.22;100.00
33153;BME280;19509;43.862;26.176;2023-03-20T12:05:00;63304.72;;;-144.22;100.00
33153;BME280;19509;43.862;26.176;2023-03-20T12:07:31;63304.72;;;-144.22;100.00
33153;BME280;19509;43.862;26.176;2023-03-20T12:10:09;63304.72;;;-144.22;100.00
33153;BME280;19509;43.862;26.176;2023-03-20T12:12:39;63304.72;;;-144.22;100.00
33153;BME280;19509;43.862;26.176;2023-03-20T12:18:21;63304.72;;;-144.22;100.00
33153;BME280;19509;43.862;26.176;2023-03-20T12:20:53;63304.72;;;-144.22;100.00
33153;BME280;19509;43.862;26.176;2023-03-20T12:24:06;63304.72;;;-144.22;100.00
33153;BME280;19509;43.862;26.176;2023-03-20T12:26:35;63304.72;;;-144.22;100.00
33153;BME280;19509;43.862;26.176;2023-03-20T12:29:08;63304.72;;;-144.22;100.00
33153;BME280;19509;43.862;26.176;2023-03-20T12:31:54;63304.72;;;-144.22;100.00
33153;BME280;19509;43.862;26.176;2023-03-20T12:34:26;63304.72;;;-144.22;100.00
33153;BME280;19509;43.862;26.176;2023-03-20T12:36:56;63304.72;;;-144.22;100.00
33153;BME280;19509;43.862;26.176;2023-03-20T12:39:33;63304.72;;;-144.22;100.00
33153;BME280;19509;43.862;26.176;2023-03-20T12:45:11;63304.72;;;-144.22;100.00
33153;BME280;19509;43.862;26.176;2023-03-20T13:01:47;63304.72;;;-144.22;100.00
33153;BME280;19509;43.862;26.176;2023-03-20T13:06:55;63304.72;;;-144.22;100.00
33153;BME280;19509;43.862;26.176;2023-03-20T13:12:34;63304.72;;;-144.22;100.00
33153;BME280;19509;43.862;26.176;2023-03-20T13:18:06;63304.72;;;-144.22;100.00
33153;BME280;19509;43.862;26.176;2023-03-20T13:20:36;63304.72;;;-144.22;100.00
33153;BME280;19509;43.862;26.176;2023-03-20T13:25:55;63304.72;;;-144.22;100.00
33153;BME280;19509;43.862;26.176;2023-03-20T13:39:24;63304.72;;;-144.22;100.00
33153;BME280;19509;43.862;26.176;2023-03-20T13:41:52;63304.72;;;-144.22;100.00
33153;BME280;19509;43.862;26.176;2023-03-20T13:44:19;63304.72;;;-144.22;100.00
33153;BME280;19509;43.862;26.176;2023-03-20T13:47:00;63304.72;;;-144.22;100.00
33153;BME280;19509;43.862;26.176;2023-03-20T13:52:13;63304.72;;;-144.22;100.00
33153;BME280;19509;43.862;26.176;2023-03-20T14:05:19;63304.72;;;-144.22;100.00
33153;BME280;19509;43.862;26.176;2023-03-20T14:07:48;63304.72;;;-144.22;100.00
33153;BME280;19509;43.862;26.176;2023-03-20T14:13:01;63304.72;;;-144.22;100.00
33153;BME280;19509;43.862;26.176;2023-03-20T14:15:34;63304.72;;;-144.22;100.00
33153;BME280;19509;43.862;26.176;2023-03-20T14:18:06;63304.72;;;-144.22;100.00
33153;BME280;19509;43.862;26.176;2023-03-20T14:20:35;63304.72;;;-144.22;100.00
33153;BME280;19509;43.862;26.176;2023-03-20T14:23:02;63304.72;;;-144.22;100.00
33153;BME280;19509;43.862;26.176;2023-03-20T14:25:34;63304.72;;;-144.22;100.00
33153;BME280;19509;43.862;26.176;2023-03-20T14:33:23;63304.72;;;-144.22;100.00
33153;BME280;19509;43.862;26.176;2023-03-20T14:36:11;63304.72;;;-144.22;100.00
33153;BME280;19509;43.862;26.176;2023-03-20T14:47:47;63304.72;;;-144.22;100.00
33153;BME280;19509;43.862;26.176;2023-03-20T14:50:31;63304.72;;;-144.22;100.00
33153;BME280;19509;43.862;26.176;2023-03-20T14:57:51;63304.72;;;-144.22;100.00
33153;BME280;19509;43.862;26.176;2023-03-20T15:00:21;63304.72;;;-144.22;100.00
33153;BME280;19509;43.862;26.176;2023-03-20T15:02:50;63304.72;;;-144.22;100.00
33153;BME280;19509;43.862;26.176;2023-03-20T15:05:23;63304.72;;;-144.22;100.00
33153;BME280;19509;43.862;26.176;2023-03-20T15:07:50;63304.72;;;-144.22;100.00
33153;BME280;19509;43.862;26.176;2023-03-20T15:10:16;63304.72;;;-144.22;100.00